sensor_id;sensor_type;location;lat;lon;timestamp;P1;durP1;ratioP1;P2;durP2;ratioP2
50379;SDS011;37474;59.468;18.040;2022-07-23T00:00:04;52.78;;;12.25;;
50379;SDS011;37474;59.468;18.040;2022-07-23T00:02:37;51.88;;;12.90;;
50379;SDS011;37474;59.468;18.040;2022-07-23T00:05:07;49.85;;;13.07;;
50379;SDS011;37474;59.468;18.040;2022-07-23T00:07:35;47.42;;;13.38;;
50379;SDS011;37474;59.468;18.040;2022-07-23T00:10:07;54.90;;;13.50;;
50379;SDS011;37474;59.468;18.040;2022-07-23T00:12:36;50.63;;;13.27;;
50379;SDS011;37474;59.468;18.040;2022-07-23T00:15:19;45.00;;;12.57;;
50379;SDS011;37474;59.468;18.040;2022-07-23T00:17:50;48.57;;;13.37;;
50379;SDS011;37474;59.468;18.040;2022-07-23T00:20:18;50.38;;;13.73;;
50379;SDS011;37474;59.468;18.040;2022-07-23T00:22:48;52.30;;;14.70;;
50379;SDS011;37474;59.468;18.040;2022-07-23T00:25:19;48.20;;;13.80;;
50379;SDS011;37474;59.468;18.040;2022-07-23T00:27:59;47.97;;;14.10;;
50379;SDS011;37474;59.468;18.040;2022-07-23T00:30:30;49.00;;;14.35;;
50379;SDS011;37474;59.468;18.040;2022-07-23T00:33:01;47.00;;;13.88;;
50379;SDS011;37474;59.468;18.040;2022-07-23T00:35:34;49.00;;;14.30;;
50379;SDS011;37474;59.468;18.040;2022-07-23T00:38:03;48.88;;;14.23;;
50379;SDS011;37474;59.468;18.040;2022-07-23T00:40:34;49.65;;;14.10;;
50379;SDS011;37474;59.468;18.040;2022-07-23T00:43:05;47.67;;;13.82;;
50379;SDS011;37474;59.468;18.040;2022-07-23T00:45:33;46.92;;;13.45;;
50379;SDS011;37474;59.468;18.040;2022-07-23T00:48:04;50.25;;;14.20;;
50379;SDS011;37474;59.468;18.040;2022-07-23T00:50:33;49.00;;;13.63;;
50379;SDS011;37474;59.468;18.040;2022-07-23T00:53:01;49.47;;;12.93;;
50379;SDS011;37474;59.468;18.040;2022-07-23T00:55:31;50.88;;;14.30;;
50379;SDS011;37474;59.468;18.040;2022-07-23T00:58:02;49.53;;;13.48;;
50379;SDS011;37474;59.468;18.040;2022-07-23T01:00:30;43.53;;;11.95;;
50379;SDS011;37474;59.468;18.040;2022-07-23T01:03:00;44.58;;;12.60;;
50379;SDS011;37474;59.468;18.040;2022-07-23T01:05:31;43.10;;;12.30;;
50379;SDS011;37474;59.468;18.040;2022-07-23T01:07:59;41.83;;;11.48;;
50379;SDS011;37474;59.468;18.040;2022-07-23T01:10:28;44.60;;;11.70;;
50379;SDS011;37474;59.468;18.040;2022-07-23T01:13:02;36.57;;;11.13;;
50379;SDS011;37474;59.468;18.040;2022-07-23T01:15:33;38.63;;;10.80;;
50379;SDS011;37474;59.468;18.040;2022-07-23T01:18:05;38.92;;;10.95;;
50379;SDS011;37474;59.468;18.040;2022-07-23T01:20:38;32.97;;;9.80;;
50379;SDS011;37474;59.468;18.040;2022-07-23T01:23:07;34.10;;;9.80;;
50379;SDS011;37474;59.468;18.040;2022-07-23T01:25:35;31.55;;;9.90;;
50379;SDS011;37474;59.468;18.040;2022-07-23T01:28:05;31.25;;;9.85;;
50379;SDS011;37474;59.468;18.040;2022-07-23T01:30:35;27.77;;;8.80;;
50379;SDS011;37474;59.468;18.040;2022-07-23T01:33:03;27.25;;;9.23;;
50379;SDS011;37474;59.468;18.040;2022-07-23T01:35:33;26.20;;;8.55;;
50379;SDS011;37474;59.468;18.040;2022-07-23T01:38:03;25.48;;;8.95;;
50379;SDS011;37474;59.468;18.040;2022-07-23T01:40:32;25.90;;;8.10;;
50379;SDS011;37474;59.468;18.040;2022-07-23T01:43:02;22.17;;;7.63;;
50379;SDS011;37474;59.468;18.040;2022-07-23T01:45:33;29.63;;;8.10;;
50379;SDS011;37474;59.468;18.040;2022-07-23T01:48:03;22.95;;;7.20;;
50379;SDS011;37474;59.468;18.040;2022-07-23T01:50:36;17.05;;;6.00;;
50379;SDS011;37474;59.468;18.040;2022-07-23T01:53:08;16.90;;;5.53;;
50379;SDS011;37474;59.468;18.040;2022-07-23T01:55:37;17.23;;;5.55;;
50379;SDS011;37474;59.468;18.040;2022-07-23T01:58:05;16.05;;;5.30;;
50379;SDS011;37474;59.468;18.040;2022-07-23T02:00:36;14.80;;;4.83;;
50379;SDS011;37474;59.468;18.040;2022-07-23T02:03:06;12.20;;;4.30;;
50379;SDS011;37474;59.468;18.040;2022-07-23T02:05:35;12.07;;;4.10;;
50379;SDS011;37474;59.468;18.040;2022-07-23T02:08:05;10.02;;;3.40;;
50379;SDS011;37474;59.468;18.040;2022-07-23T02:10:36;7.53;;;2.70;;
50379;SDS011;37474;59.468;18.040;2022-07-23T02:13:05;8.55;;;2.60;;
50379;SDS011;37474;59.468;18.040;2022-07-23T02:15:33;7.50;;;2.50;;
50379;SDS011;37474;59.468;18.040;2022-07-23T02:18:03;5.93;;;2.13;;
50379;SDS011;37474;59.468;18.040;2022-07-23T02:20:31;8.18;;;2.38;;
50379;SDS011;37474;59.468;18.040;2022-07-23T02:23:01;5.60;;;2.03;;
50379;SDS011;37474;59.468;18.040;2022-07-23T02:25:31;6.85;;;2.38;;
50379;SDS011;37474;59.468;18.040;2022-07-23T02:28:01;5.53;;;2.08;;
50379;SDS011;37474;59.468;18.040;2022-07-23T02:30:32;6.30;;;2.00;;
50379;SDS011;37474;59.468;18.040;2022-07-23T02:33:01;6.47;;;2.03;;
50379;SDS011;37474;59.468;18.040;2022-07-23T02:35:29;5.70;;;2.00;;
50379;SDS011;37474;59.468;18.040;2022-07-23T02:37:59;5.45;;;1.80;;
50379;SDS011;37474;59.468;18.040;2022-07-23T02:40:29;5.88;;;1.83;;
50379;SDS011;37474;59.468;18.040;2022-07-23T02:42:57;4.00;;;1.40;;
50379;SDS011;37474;59.468;18.040;2022-07-23T02:45:26;3.87;;;1.40;;
50379;SDS011;37474;59.468;18.040;2022-07-23T02:47:56;3.20;;;1.20;;
50379;SDS011;37474;59.468;18.040;2022-07-23T02:50:24;4.68;;;1.30;;
50379;SDS011;37474;59.468;18.040;2022-07-23T02:52:54;3.50;;;1.20;;
50379;SDS011;37474;59.468;18.040;2022-07-23T02:55:24;3.78;;;1.30;;
50379;SDS011;37474;59.468;18.040;2022-07-23T02:57:52;3.67;;;1.20;;
50379;SDS011;37474;59.468;18.040;2022-07-23T03:00:22;3.78;;;1.27;;
50379;SDS011;37474;59.468;18.040;2022-07-23T03:02:53;3.13;;;1.30;;
50379;SDS011;37474;59.468;18.040;2022-07-23T03:05:21;3.85;;;1.23;;
50379;SDS011;37474;59.468;18.040;2022-07-23T03:07:51;3.47;;;1.20;;
50379;SDS011;37474;59.468;18.040;2022-07-23T03:10:19;3.72;;;1.30;;
50379;SDS011;37474;59.468;18.040;2022-07-23T03:12:47;3.22;;;1.20;;
50379;SDS011;37474;59.468;18.040;2022-07-23T03:15:17;3.63;;;1.10;;
50379;SDS011;37474;59.468;18.040;2022-07-23T03:17:45;3.88;;;1.20;;
50379;SDS011;37474;59.468;18.040;2022-07-23T03:20:16;3.60;;;1.40;;
50379;SDS011;37474;59.468;18.040;2022-07-23T03:22:45;4.47;;;1.40;;
50379;SDS011;37474;59.468;18.040;2022-07-23T03:25:13;4.75;;;1.30;;
50379;SDS011;37474;59.468;18.040;2022-07-23T03:27:43;2.90;;;1.20;;
50379;SDS011;37474;59.468;18.040;2022-07-23T03:30:14;2.72;;;1.20;;
50379;SDS011;37474;59.468;18.040;2022-07-23T03:32:41;2.63;;;1.40;;
50379;SDS011;37474;59.468;18.040;2022-07-23T03:35:11;3.10;;;1.40;;
50379;SDS011;37474;59.468;18.040;2022-07-23T03:37:44;3.28;;;1.30;;
50379;SDS011;37474;59.468;18.040;2022-07-23T03:40:12;3.42;;;1.48;;
50379;SDS011;37474;59.468;18.040;2022-07-23T03:42:42;3.22;;;1.27;;
50379;SDS011;37474;59.468;18.040;2022-07-23T03:45:14;1.85;;;1.23;;
50379;SDS011;37474;59.468;18.040;2022-07-23T03:47:43;3.85;;;1.30;;
50379;SDS011;37474;59.468;18.040;2022-07-23T03:50:11;4.82;;;1.50;;
50379;SDS011;37474;59.468;18.040;2022-07-23T03:52:39;3.38;;;1.45;;
50379;SDS011;37474;59.468;18.040;2022-07-23T03:55:11;4.03;;;1.38;;
50379;SDS011;37474;59.468;18.040;2022-07-23T03:57:38;4.40;;;1.55;;
50379;SDS011;37474;59.468;18.040;2022-07-23T04:00:08;4.90;;;1.60;;
50379;SDS011;37474;59.468;18.040;2022-07-23T04:02:39;4.32;;;1.50;;
50379;SDS011;37474;59.468;18.040;2022-07-23T04:05:09;4.15;;;1.50;;
50379;SDS011;37474;59.468;18.040;2022-07-23T04:07:37;3.30;;;1.50;;
50379;SDS011;37474;59.468;18.040;2022-07-23T04:10:08;4.00;;;1.52;;
50379;SDS011;37474;59.468;18.040;2022-07-23T04:12:39;3.33;;;1.40;;
50379;SDS011;37474;59.468;18.040;2022-07-23T04:15:08;4.55;;;1.70;;
50379;SDS011;37474;59.468;18.040;2022-07-23T04:17:38;3.80;;;1.60;;
50379;SDS011;37474;59.468;18.040;2022-07-23T04:20:08;4.85;;;1.63;;
50379;SDS011;37474;59.468;18.040;2022-07-23T04:22:37;4.78;;;1.77;;
50379;SDS011;37474;59.468;18.040;2022-07-23T04:25:07;6.27;;;1.77;;
50379;SDS011;37474;59.468;18.040;2022-07-23T04:27:38;4.70;;;1.63;;
50379;SDS011;37474;59.468;18.040;2022-07-23T04:30:07;6.00;;;1.98;;
50379;SDS011;37474;59.468;18.040;2022-07-23T04:32:38;4.20;;;1.70;;
50379;SDS011;37474;59.468;18.040;2022-07-23T04:35:08;5.88;;;1.92;;
50379;SDS011;37474;59.468;18.040;2022-07-23T04:37:36;5.90;;;2.17;;
50379;SDS011;37474;59.468;18.040;2022-07-23T04:40:06;5.40;;;1.90;;
50379;SDS011;37474;59.468;18.040;2022-07-23T04:42:39;5.83;;;2.00;;
50379;SDS011;37474;59.468;18.040;2022-07-23T04:45:09;5.97;;;2.05;;
50379;SDS011;37474;59.468;18.040;2022-07-23T04:47:39;4.65;;;1.83;;
50379;SDS011;37474;59.468;18.040;2022-07-23T04:50:07;4.30;;;2.00;;
50379;SDS011;37474;59.468;18.040;2022-07-23T04:52:37;3.75;;;1.88;;
50379;SDS011;37474;59.468;18.040;2022-07-23T04:55:05;4.72;;;2.08;;
50379;SDS011;37474;59.468;18.040;2022-07-23T04:57:36;4.50;;;1.88;;
50379;SDS011;37474;59.468;18.040;2022-07-23T05:00:07;3.47;;;1.60;;
50379;SDS011;37474;59.468;18.040;2022-07-23T05:02:36;3.50;;;1.70;;
50379;SDS011;37474;59.468;18.040;2022-07-23T05:05:05;4.00;;;1.65;;
50379;SDS011;37474;59.468;18.040;2022-07-23T05:07:35;3.90;;;1.65;;
50379;SDS011;37474;59.468;18.040;2022-07-23T05:10:07;4.00;;;1.60;;
50379;SDS011;37474;59.468;18.040;2022-07-23T05:12:35;3.72;;;1.70;;
50379;SDS011;37474;59.468;18.040;2022-07-23T05:15:07;3.45;;;1.70;;
50379;SDS011;37474;59.468;18.040;2022-07-23T05:17:37;2.63;;;1.40;;
50379;SDS011;37474;59.468;18.040;2022-07-23T05:20:05;3.47;;;1.30;;
50379;SDS011;37474;59.468;18.040;2022-07-23T05:22:36;3.28;;;1.40;;
50379;SDS011;37474;59.468;18.040;2022-07-23T05:25:08;3.60;;;1.20;;
50379;SDS011;37474;59.468;18.040;2022-07-23T05:27:36;3.05;;;1.23;;
50379;SDS011;37474;59.468;18.040;2022-07-23T05:30:08;2.33;;;1.20;;
50379;SDS011;37474;59.468;18.040;2022-07-23T05:32:39;2.15;;;1.20;;
50379;SDS011;37474;59.468;18.040;2022-07-23T05:35:09;4.00;;;1.38;;
50379;SDS011;37474;59.468;18.040;2022-07-23T05:37:37;3.10;;;1.20;;
50379;SDS011;37474;59.468;18.040;2022-07-23T05:40:11;3.17;;;1.10;;
50379;SDS011;37474;59.468;18.040;2022-07-23T05:42:40;3.55;;;1.10;;
50379;SDS011;37474;59.468;18.040;2022-07-23T05:45:10;2.53;;;1.20;;
50379;SDS011;37474;59.468;18.040;2022-07-23T05:47:42;2.20;;;1.10;;
50379;SDS011;37474;59.468;18.040;2022-07-23T05:50:11;3.75;;;1.10;;
50379;SDS011;37474;59.468;18.040;2022-07-23T05:52:42;2.88;;;0.98;;
50379;SDS011;37474;59.468;18.040;2022-07-23T05:55:12;2.88;;;0.90;;
50379;SDS011;37474;59.468;18.040;2022-07-23T05:57:40;2.38;;;1.10;;
50379;SDS011;37474;59.468;18.040;2022-07-23T06:00:12;1.95;;;1.10;;
50379;SDS011;37474;59.468;18.040;2022-07-23T06:02:43;2.40;;;1.10;;
50379;SDS011;37474;59.468;18.040;2022-07-23T06:05:11;2.65;;;1.15;;
50379;SDS011;37474;59.468;18.040;2022-07-23T06:07:40;1.25;;;0.80;;
50379;SDS011;37474;59.468;18.040;2022-07-23T06:10:12;2.30;;;1.00;;
50379;SDS011;37474;59.468;18.040;2022-07-23T06:12:40;2.45;;;0.80;;
50379;SDS011;37474;59.468;18.040;2022-07-23T06:15:11;1.52;;;0.85;;
50379;SDS011;37474;59.468;18.040;2022-07-23T06:17:42;1.50;;;0.70;;
50379;SDS011;37474;59.468;18.040;2022-07-23T06:20:10;2.08;;;0.70;;
50379;SDS011;37474;59.468;18.040;2022-07-23T06:22:40;1.38;;;0.70;;
50379;SDS011;37474;59.468;18.040;2022-07-23T06:25:10;2.10;;;0.80;;
50379;SDS011;37474;59.468;18.040;2022-07-23T06:27:47;1.83;;;0.88;;
50379;SDS011;37474;59.468;18.040;2022-07-23T06:30:19;1.53;;;0.70;;
50379;SDS011;37474;59.468;18.040;2022-07-23T06:32:52;1.80;;;0.90;;
50379;SDS011;37474;59.468;18.040;2022-07-23T06:35:22;1.45;;;0.73;;
50379;SDS011;37474;59.468;18.040;2022-07-23T06:37:50;1.52;;;0.80;;
50379;SDS011;37474;59.468;18.040;2022-07-23T06:40:18;0.82;;;0.70;;
50379;SDS011;37474;59.468;18.040;2022-07-23T06:42:46;1.40;;;0.70;;
50379;SDS011;37474;59.468;18.040;2022-07-23T06:45:14;1.70;;;0.80;;
50379;SDS011;37474;59.468;18.040;2022-07-23T06:47:43;2.00;;;0.70;;
50379;SDS011;37474;59.468;18.040;2022-07-23T06:50:11;1.30;;;0.70;;
50379;SDS011;37474;59.468;18.040;2022-07-23T06:52:39;1.08;;;0.80;;
50379;SDS011;37474;59.468;18.040;2022-07-23T06:55:10;2.15;;;0.60;;
50379;SDS011;37474;59.468;18.040;2022-07-23T06:57:41;1.55;;;0.60;;
50379;SDS011;37474;59.468;18.040;2022-07-23T07:00:09;1.83;;;0.70;;
50379;SDS011;37474;59.468;18.040;2022-07-23T07:02:40;1.48;;;0.68;;
50379;SDS011;37474;59.468;18.040;2022-07-23T07:05:11;1.90;;;0.60;;
50379;SDS011;37474;59.468;18.040;2022-07-23T07:07:39;0.65;;;0.60;;
50379;SDS011;37474;59.468;18.040;2022-07-23T07:10:09;1.10;;;0.50;;
50379;SDS011;37474;59.468;18.040;2022-07-23T07:12:41;1.08;;;0.50;;
50379;SDS011;37474;59.468;18.040;2022-07-23T07:15:09;2.22;;;0.60;;
50379;SDS011;37474;59.468;18.040;2022-07-23T07:17:39;1.10;;;0.60;;
50379;SDS011;37474;59.468;18.040;2022-07-23T07:20:11;0.95;;;0.50;;
50379;SDS011;37474;59.468;18.040;2022-07-23T07:22:39;1.50;;;0.60;;
50379;SDS011;37474;59.468;18.040;2022-07-23T07:25:08;1.02;;;0.50;;
50379;SDS011;37474;59.468;18.040;2022-07-23T07:27:36;1.75;;;0.50;;
50379;SDS011;37474;59.468;18.040;2022-07-23T07:30:07;0.95;;;0.60;;
50379;SDS011;37474;59.468;18.040;2022-07-23T07:32:35;1.45;;;0.50;;
50379;SDS011;37474;59.468;18.040;2022-07-23T07:35:25;1.48;;;0.55;;
50379;SDS011;37474;59.468;18.040;2022-07-23T07:37:53;1.55;;;0.70;;
50379;SDS011;37474;59.468;18.040;2022-07-23T07:40:21;2.10;;;0.63;;
50379;SDS011;37474;59.468;18.040;2022-07-23T07:42:51;0.73;;;0.50;;
50379;SDS011;37474;59.468;18.040;2022-07-23T07:45:21;0.93;;;0.50;;
50379;SDS011;37474;59.468;18.040;2022-07-23T07:47:51;1.20;;;0.40;;
50379;SDS011;37474;59.468;18.040;2022-07-23T07:50:20;1.00;;;0.40;;
50379;SDS011;37474;59.468;18.040;2022-07-23T07:52:49;0.77;;;0.40;;
50379;SDS011;37474;59.468;18.040;2022-07-23T07:55:21;1.35;;;0.47;;
50379;SDS011;37474;59.468;18.040;2022-07-23T07:57:49;1.88;;;0.40;;
50379;SDS011;37474;59.468;18.040;2022-07-23T08:00:17;2.00;;;0.60;;
50379;SDS011;37474;59.468;18.040;2022-07-23T08:02:46;1.40;;;0.50;;
50379;SDS011;37474;59.468;18.040;2022-07-23T08:05:18;2.57;;;0.40;;
50379;SDS011;37474;59.468;18.040;2022-07-23T08:07:54;1.10;;;0.40;;
50379;SDS011;37474;59.468;18.040;2022-07-23T08:10:23;0.50;;;0.40;;
50379;SDS011;37474;59.468;18.040;2022-07-23T08:12:52;0.38;;;0.38;;
50379;SDS011;37474;59.468;18.040;2022-07-23T08:15:23;0.80;;;0.40;;
50379;SDS011;37474;59.468;18.040;2022-07-23T08:17:52;1.17;;;0.33;;
50379;SDS011;37474;59.468;18.040;2022-07-23T08:20:22;0.98;;;0.57;;
50379;SDS011;37474;59.468;18.040;2022-07-23T08:22:53;0.40;;;0.40;;
50379;SDS011;37474;59.468;18.040;2022-07-23T08:25:26;0.30;;;0.30;;
50379;SDS011;37474;59.468;18.040;2022-07-23T08:27:58;0.60;;;0.30;;
50379;SDS011;37474;59.468;18.040;2022-07-23T08:30:29;0.43;;;0.38;;
50379;SDS011;37474;59.468;18.040;2022-07-23T08:32:59;1.13;;;0.25;;
50379;SDS011;37474;59.468;18.040;2022-07-23T08:35:28;0.50;;;0.25;;
50379;SDS011;37474;59.468;18.040;2022-07-23T08:38:02;1.45;;;0.30;;
50379;SDS011;37474;59.468;18.040;2022-07-23T08:40:31;0.65;;;0.30;;
50379;SDS011;37474;59.468;18.040;2022-07-23T08:43:09;0.95;;;0.30;;
50379;SDS011;37474;59.468;18.040;2022-07-23T08:45:38;0.77;;;0.30;;
50379;SDS011;37474;59.468;18.040;2022-07-23T08:48:11;1.48;;;0.40;;
50379;SDS011;37474;59.468;18.040;2022-07-23T08:50:42;1.43;;;0.30;;
50379;SDS011;37474;59.468;18.040;2022-07-23T08:53:12;0.60;;;0.30;;
50379;SDS011;37474;59.468;18.040;2022-07-23T08:55:43;1.73;;;0.30;;
50379;SDS011;37474;59.468;18.040;2022-07-23T08:58:14;1.00;;;0.30;;
50379;SDS011;37474;59.468;18.040;2022-07-23T09:00:45;0.50;;;0.30;;
50379;SDS011;37474;59.468;18.040;2022-07-23T09:03:14;1.20;;;0.30;;
50379;SDS011;37474;59.468;18.040;2022-07-23T09:05:48;0.40;;;0.30;;
50379;SDS011;37474;59.468;18.040;2022-07-23T09:08:18;0.57;;;0.25;;
50379;SDS011;37474;59.468;18.040;2022-07-23T09:10:52;0.52;;;0.30;;
50379;SDS011;37474;59.468;18.040;2022-07-23T09:13:25;0.52;;;0.20;;
50379;SDS011;37474;59.468;18.040;2022-07-23T09:15:59;0.60;;;0.20;;
50379;SDS011;37474;59.468;18.040;2022-07-23T09:18:30;0.93;;;0.20;;
50379;SDS011;37474;59.468;18.040;2022-07-23T09:21:13;0.77;;;0.20;;
50379;SDS011;37474;59.468;18.040;2022-07-23T09:23:51;0.47;;;0.40;;
50379;SDS011;37474;59.468;18.040;2022-07-23T09:26:27;0.75;;;0.30;;
50379;SDS011;37474;59.468;18.040;2022-07-23T09:29:04;0.60;;;0.30;;
50379;SDS011;37474;59.468;18.040;2022-07-23T09:31:46;0.70;;;0.30;;
50379;SDS011;37474;59.468;18.040;2022-07-23T09:34:16;1.00;;;0.28;;
50379;SDS011;37474;59.468;18.040;2022-07-23T09:36:50;0.98;;;0.30;;
50379;SDS011;37474;59.468;18.040;2022-07-23T09:39:24;0.63;;;0.30;;
50379;SDS011;37474;59.468;18.040;2022-07-23T09:41:58;0.90;;;0.30;;
50379;SDS011;37474;59.468;18.040;2022-07-23T09:44:41;0.82;;;0.30;;
50379;SDS011;37474;59.468;18.040;2022-07-23T09:47:12;1.45;;;0.40;;
50379;SDS011;37474;59.468;18.040;2022-07-23T09:49:40;2.70;;;0.40;;
50379;SDS011;37474;59.468;18.040;2022-07-23T09:52:27;1.20;;;0.40;;
50379;SDS011;37474;59.468;18.040;2022-07-23T09:55:03;0.75;;;0.40;;
50379;SDS011;37474;59.468;18.040;2022-07-23T09:57:36;0.95;;;0.30;;
50379;SDS011;37474;59.468;18.040;2022-07-23T10:00:08;0.52;;;0.30;;
50379;SDS011;37474;59.468;18.040;2022-07-23T10:02:38;2.40;;;0.50;;
50379;SDS011;37474;59.468;18.040;2022-07-23T10:05:07;0.98;;;0.63;;
50379;SDS011;37474;59.468;18.040;2022-07-23T10:07:36;1.02;;;0.40;;
50379;SDS011;37474;59.468;18.040;2022-07-23T10:10:11;0.80;;;0.40;;
50379;SDS011;37474;59.468;18.040;2022-07-23T10:12:43;2.10;;;0.60;;
50379;SDS011;37474;59.468;18.040;2022-07-23T10:15:32;0.98;;;0.50;;
50379;SDS011;37474;59.468;18.040;2022-07-23T10:18:00;1.30;;;0.50;;
50379;SDS011;37474;59.468;18.040;2022-07-23T10:20:28;1.67;;;0.40;;
50379;SDS011;37474;59.468;18.040;2022-07-23T10:23:02;1.60;;;0.40;;
50379;SDS011;37474;59.468;18.040;2022-07-23T10:25:40;1.05;;;0.40;;
50379;SDS011;37474;59.468;18.040;2022-07-23T10:28:18;1.05;;;0.40;;
50379;SDS011;37474;59.468;18.040;2022-07-23T10:31:00;2.13;;;0.70;;
50379;SDS011;37474;59.468;18.040;2022-07-23T10:33:56;0.75;;;0.40;;
50379;SDS011;37474;59.468;18.040;2022-07-23T10:36:37;0.90;;;0.45;;
50379;SDS011;37474;59.468;18.040;2022-07-23T10:39:17;1.20;;;0.50;;
50379;SDS011;37474;59.468;18.040;2022-07-23T10:41:51;1.63;;;0.43;;
50379;SDS011;37474;59.468;18.040;2022-07-23T10:44:20;1.17;;;0.40;;
50379;SDS011;37474;59.468;18.040;2022-07-23T10:46:53;0.63;;;0.40;;
50379;SDS011;37474;59.468;18.040;2022-07-23T10:49:30;0.63;;;0.50;;
50379;SDS011;37474;59.468;18.040;2022-07-23T10:52:19;1.15;;;0.60;;
50379;SDS011;37474;59.468;18.040;2022-07-23T10:54:50;1.73;;;0.50;;
50379;SDS011;37474;59.468;18.040;2022-07-23T10:57:21;0.93;;;0.60;;
50379;SDS011;37474;59.468;18.040;2022-07-23T11:00:09;2.20;;;0.50;;
50379;SDS011;37474;59.468;18.040;2022-07-23T11:02:49;2.10;;;0.60;;
50379;SDS011;37474;59.468;18.040;2022-07-23T11:05:22;1.10;;;0.70;;
50379;SDS011;37474;59.468;18.040;2022-07-23T11:10:51;1.25;;;0.68;;
50379;SDS011;37474;59.468;18.040;2022-07-23T11:16:16;1.70;;;0.80;;
50379;SDS011;37474;59.468;18.040;2022-07-23T11:18:55;1.70;;;0.70;;
50379;SDS011;37474;59.468;18.040;2022-07-23T11:21:44;1.70;;;0.80;;
50379;SDS011;37474;59.468;18.040;2022-07-23T11:24:17;2.10;;;0.77;;
50379;SDS011;37474;59.468;18.040;2022-07-23T11:26:50;2.40;;;0.80;;
50379;SDS011;37474;59.468;18.040;2022-07-23T11:35:20;1.65;;;0.60;;
50379;SDS011;37474;59.468;18.040;2022-07-23T11:38:02;1.73;;;0.70;;
50379;SDS011;37474;59.468;18.040;2022-07-23T11:40:32;2.45;;;0.80;;
50379;SDS011;37474;59.468;18.040;2022-07-23T11:43:02;3.13;;;0.80;;
50379;SDS011;37474;59.468;18.040;2022-07-23T11:45:36;1.40;;;0.70;;
50379;SDS011;37474;59.468;18.040;2022-07-23T11:48:08;0.80;;;0.70;;
50379;SDS011;37474;59.468;18.040;2022-07-23T11:50:39;1.55;;;0.68;;
50379;SDS011;37474;59.468;18.040;2022-07-23T11:53:07;1.48;;;0.70;;
50379;SDS011;37474;59.468;18.040;2022-07-23T11:55:35;1.75;;;0.70;;
50379;SDS011;37474;59.468;18.040;2022-07-23T11:58:04;1.65;;;0.70;;
50379;SDS011;37474;59.468;18.040;2022-07-23T12:00:33;1.65;;;0.68;;
50379;SDS011;37474;59.468;18.040;2022-07-23T12:03:09;1.00;;;0.50;;
50379;SDS011;37474;59.468;18.040;2022-07-23T12:05:39;2.15;;;0.65;;
50379;SDS011;37474;59.468;18.040;2022-07-23T12:08:08;2.20;;;0.60;;
50379;SDS011;37474;59.468;18.040;2022-07-23T12:10:39;3.10;;;0.60;;
50379;SDS011;37474;59.468;18.040;2022-07-23T12:13:11;1.20;;;0.60;;
50379;SDS011;37474;59.468;18.040;2022-07-23T12:15:41;1.33;;;0.70;;
50379;SDS011;37474;59.468;18.040;2022-07-23T12:18:12;0.77;;;0.50;;
50379;SDS011;37474;59.468;18.040;2022-07-23T12:20:42;1.60;;;0.60;;
50379;SDS011;37474;59.468;18.040;2022-07-23T12:23:12;1.40;;;0.60;;
50379;SDS011;37474;59.468;18.040;2022-07-23T12:25:49;1.02;;;0.60;;
50379;SDS011;37474;59.468;18.040;2022-07-23T12:28:20;2.10;;;0.60;;
50379;SDS011;37474;59.468;18.040;2022-07-23T12:30:50;2.25;;;0.70;;
50379;SDS011;37474;59.468;18.040;2022-07-23T12:33:24;1.07;;;0.60;;
50379;SDS011;37474;59.468;18.040;2022-07-23T12:35:56;1.95;;;0.70;;
50379;SDS011;37474;59.468;18.040;2022-07-23T12:38:26;1.88;;;0.70;;
50379;SDS011;37474;59.468;18.040;2022-07-23T12:41:00;0.93;;;0.60;;
50379;SDS011;37474;59.468;18.040;2022-07-23T12:43:30;3.63;;;0.70;;
50379;SDS011;37474;59.468;18.040;2022-07-23T12:46:02;2.05;;;0.60;;
50379;SDS011;37474;59.468;18.040;2022-07-23T12:48:33;2.53;;;0.60;;
50379;SDS011;37474;59.468;18.040;2022-07-23T12:51:05;1.50;;;0.70;;
50379;SDS011;37474;59.468;18.040;2022-07-23T12:53:37;1.08;;;0.60;;
50379;SDS011;37474;59.468;18.040;2022-07-23T12:56:09;1.00;;;0.60;;
50379;SDS011;37474;59.468;18.040;2022-07-23T12:58:44;1.48;;;0.55;;
50379;SDS011;37474;59.468;18.040;2022-07-23T13:01:27;1.17;;;0.60;;
50379;SDS011;37474;59.468;18.040;2022-07-23T13:03:59;2.60;;;1.10;;
50379;SDS011;37474;59.468;18.040;2022-07-23T13:06:51;1.63;;;0.70;;
50379;SDS011;37474;59.468;18.040;2022-07-23T13:09:27;1.58;;;0.57;;
50379;SDS011;37474;59.468;18.040;2022-07-23T13:12:02;1.95;;;0.80;;
50379;SDS011;37474;59.468;18.040;2022-07-23T13:14:33;1.60;;;0.70;;
50379;SDS011;37474;59.468;18.040;2022-07-23T13:17:01;1.48;;;0.70;;
50379;SDS011;37474;59.468;18.040;2022-07-23T13:19:33;1.20;;;0.70;;
50379;SDS011;37474;59.468;18.040;2022-07-23T13:22:03;1.00;;;0.70;;
50379;SDS011;37474;59.468;18.040;2022-07-23T13:24:35;1.55;;;0.73;;
50379;SDS011;37474;59.468;18.040;2022-07-23T13:27:07;3.42;;;0.80;;
50379;SDS011;37474;59.468;18.040;2022-07-23T13:29:38;1.65;;;0.70;;
50379;SDS011;37474;59.468;18.040;2022-07-23T13:32:07;2.92;;;0.73;;
50379;SDS011;37474;59.468;18.040;2022-07-23T13:34:41;1.52;;;0.70;;
50379;SDS011;37474;59.468;18.040;2022-07-23T13:37:11;1.27;;;0.70;;
50379;SDS011;37474;59.468;18.040;2022-07-23T13:39:39;2.38;;;0.88;;
50379;SDS011;37474;59.468;18.040;2022-07-23T13:42:08;0.90;;;0.60;;
50379;SDS011;37474;59.468;18.040;2022-07-23T13:44:36;2.00;;;0.90;;
50379;SDS011;37474;59.468;18.040;2022-07-23T13:47:04;2.05;;;0.57;;
50379;SDS011;37474;59.468;18.040;2022-07-23T13:49:32;1.55;;;0.63;;
50379;SDS011;37474;59.468;18.040;2022-07-23T13:52:02;1.67;;;0.75;;
50379;SDS011;37474;59.468;18.040;2022-07-23T13:54:33;1.27;;;0.60;;
50379;SDS011;37474;59.468;18.040;2022-07-23T13:57:01;1.80;;;0.57;;
50379;SDS011;37474;59.468;18.040;2022-07-23T13:59:33;1.50;;;0.70;;
50379;SDS011;37474;59.468;18.040;2022-07-23T14:02:01;0.88;;;0.50;;
50379;SDS011;37474;59.468;18.040;2022-07-23T14:04:51;1.20;;;0.60;;
50379;SDS011;37474;59.468;18.040;2022-07-23T14:07:21;1.02;;;0.68;;
50379;SDS011;37474;59.468;18.040;2022-07-23T14:09:51;2.08;;;0.60;;
50379;SDS011;37474;59.468;18.040;2022-07-23T14:12:21;2.53;;;0.65;;
50379;SDS011;37474;59.468;18.040;2022-07-23T14:14:51;3.80;;;1.00;;
50379;SDS011;37474;59.468;18.040;2022-07-23T14:17:21;1.20;;;0.63;;
50379;SDS011;37474;59.468;18.040;2022-07-23T14:19:52;1.10;;;0.63;;
50379;SDS011;37474;59.468;18.040;2022-07-23T14:22:24;1.48;;;0.88;;
50379;SDS011;37474;59.468;18.040;2022-07-23T14:24:52;2.33;;;0.80;;
50379;SDS011;37474;59.468;18.040;2022-07-23T14:27:20;2.30;;;0.73;;
50379;SDS011;37474;59.468;18.040;2022-07-23T14:29:53;1.27;;;0.60;;
50379;SDS011;37474;59.468;18.040;2022-07-23T14:32:22;1.90;;;0.60;;
50379;SDS011;37474;59.468;18.040;2022-07-23T14:34:50;1.75;;;0.60;;
50379;SDS011;37474;59.468;18.040;2022-07-23T14:37:25;2.95;;;0.60;;
50379;SDS011;37474;59.468;18.040;2022-07-23T14:39:53;3.85;;;0.80;;
50379;SDS011;37474;59.468;18.040;2022-07-23T14:42:21;1.90;;;0.80;;
50379;SDS011;37474;59.468;18.040;2022-07-23T14:44:58;3.05;;;0.80;;
50379;SDS011;37474;59.468;18.040;2022-07-23T14:47:35;2.15;;;0.60;;
50379;SDS011;37474;59.468;18.040;2022-07-23T14:50:07;1.88;;;0.50;;
50379;SDS011;37474;59.468;18.040;2022-07-23T14:52:38;2.10;;;0.70;;
50379;SDS011;37474;59.468;18.040;2022-07-23T14:55:07;1.20;;;0.70;;
50379;SDS011;37474;59.468;18.040;2022-07-23T14:57:37;3.20;;;0.90;;
50379;SDS011;37474;59.468;18.040;2022-07-23T15:00:07;1.95;;;0.80;;
50379;SDS011;37474;59.468;18.040;2022-07-23T15:02:36;1.17;;;0.60;;
50379;SDS011;37474;59.468;18.040;2022-07-23T15:05:07;2.20;;;0.70;;